Time;durP1;ratioP1;P1;durP2;ratioP2;P2;SDS_P1;SDS_P2;PMS_P1;PMS_P2;Temp;Humidity;BMP_temperature;BMP_pressure;BME280_temperature;BME280_humidity;BME280_pressure;Samples;Min_cycle;Max_cycle;Signal;HPM_P1;HPM_P2
2022/07/24 00:01:16;;;;;;;13.20;10.30;;;;;;;25.87;52.09;99041.13;6968671;28;20246;-80
2022/07/24 00:04:38;;;;;;;11.60;10.50;;;;;;;25.88;52.15;99040.00;6971684;28;20267;-80
2022/07/24 00:08:03;;;;;;;13.77;11.10;;;;;;;25.84;52.07;99043.66;6962898;28;20196;-80
2022/07/24 00:11:25;;;;;;;10.73;9.63;;;;;;;25.90;51.50;99048.03;6958657;28;20227;-80
2022/07/24 00:14:46;;;;;;;12.60;11.47;;;;;;;25.47;52.51;99041.66;6970004;28;20203;-80
2022/07/24 00:18:09;;;;;;;11.30;10.30;;;;;;;25.84;51.56;99046.41;6958468;28;20679;-80
2022/07/24 00:21:31;;;;;;;11.97;10.83;;;;;;;25.83;51.40;99042.81;6954542;28;20238;-80
2022/07/24 00:24:52;;;;;;;11.83;10.73;;;;;;;25.11;52.88;99029.38;6955576;28;20627;-80
2022/07/24 00:28:14;;;;;;;11.10;10.00;;;;;;;25.55;52.24;99038.22;6959093;28;20199;-80
2022/07/24 00:31:35;;;;;;;11.80;10.63;;;;;;;25.43;52.51;99037.03;6949885;28;20250;-80
2022/07/24 00:34:58;;;;;;;12.60;11.37;;;;;;;25.32;52.91;99019.75;6952339;28;20188;-80
2022/07/24 00:38:20;;;;;;;12.77;11.53;;;;;;;25.02;53.63;99044.13;6951324;28;20207;-80
2022/07/24 00:41:42;;;;;;;13.40;11.50;;;;;;;25.00;54.52;99040.81;6952957;28;20230;-81
2022/07/24 00:45:04;;;;;;;12.43;11.30;;;;;;;25.29;53.55;99041.59;6962914;28;20224;-80
2022/07/24 00:48:25;;;;;;;12.13;11.03;;;;;;;25.01;54.48;99040.53;6962882;28;20203;-80
2022/07/24 00:51:50;;;;;;;11.77;10.67;;;;;;;25.34;52.81;99036.88;6960408;28;20235;-79
2022/07/24 00:55:12;;;;;;;12.90;11.63;;;;;;;25.08;53.83;99027.19;6955204;28;20336;-79
2022/07/24 00:58:37;;;;;;;11.60;10.60;;;;;;;25.34;52.90;99036.03;6956809;28;20207;-79
2022/07/24 01:01:59;;;;;;;12.03;10.73;;;;;;;25.61;52.00;99048.09;6950794;28;20233;-79
2022/07/24 01:05:21;;;;;;;12.57;11.27;;;;;;;25.59;51.75;99047.56;6951373;28;20301;-80
2022/07/24 01:08:44;;;;;;;11.30;10.30;;;;;;;25.49;51.80;99025.63;6957813;28;20211;-80
2022/07/24 01:12:06;;;;;;;12.80;11.27;;;;;;;25.35;52.14;99018.34;6956934;28;20249;-80
2022/07/24 01:15:28;;;;;;;12.33;10.77;;;;;;;24.93;53.35;99023.78;6964892;28;20215;-80
2022/07/24 01:18:50;;;;;;;12.00;11.00;;;;;;;24.79;53.74;99011.81;6955891;28;20217;-80
2022/07/24 01:22:12;;;;;;;12.43;11.37;;;;;;;24.87;54.13;99047.84;6951726;28;20281;-79
2022/07/24 01:25:34;;;;;;;12.70;11.40;;;;;;;24.51;54.19;99016.19;6951810;28;20204;-80
2022/07/24 01:28:56;;;;;;;12.13;11.03;;;;;;;24.43;55.27;99049.88;6950272;28;20622;-80
2022/07/24 01:32:17;;;;;;;13.67;11.70;;;;;;;24.21;55.67;99033.00;6950362;28;20226;-80
2022/07/24 01:35:39;;;;;;;12.13;11.03;;;;;;;24.19;56.00;99046.22;6953074;28;20218;-80
2022/07/24 01:39:03;;;;;;;12.13;10.97;;;;;;;24.46;55.05;99035.53;6948652;28;20199;-81
2022/07/24 01:42:25;;;;;;;11.80;10.83;;;;;;;24.40;55.77;99046.88;6948192;28;20227;-80
2022/07/24 01:45:46;;;;;;;12.17;11.13;;;;;;;24.71;54.40;99040.03;6948278;28;20216;-80
2022/07/24 01:49:08;;;;;;;11.87;10.77;;;;;;;24.67;54.09;99019.66;6947337;28;20337;-80
2022/07/24 01:52:30;;;;;;;13.40;11.47;;;;;;;24.85;53.64;99049.25;6947432;28;20242;-80
2022/07/24 01:55:53;;;;;;;12.97;11.67;;;;;;;24.74;54.79;99048.53;6948381;28;20215;-80
2022/07/24 01:59:15;;;;;;;12.37;11.13;;;;;;;24.51;54.31;99021.69;6948142;28;20216;-80
2022/07/24 02:02:36;;;;;;;11.17;10.03;;;;;;;24.76;53.65;99021.47;6947665;28;20763;-81
2022/07/24 02:05:58;;;;;;;12.47;11.37;;;;;;;24.80;53.15;99049.31;6947721;28;20252;-80
2022/07/24 02:09:20;;;;;;;13.17;11.93;;;;;;;24.42;54.47;99036.41;6947799;28;20242;-80
2022/07/24 02:12:42;;;;;;;12.83;11.57;;;;;;;24.14;55.78;99007.66;6949198;28;20237;-80
2022/07/24 02:16:04;;;;;;;12.73;11.53;;;;;;;24.58;54.46;99046.19;6954394;28;20204;-80
2022/07/24 02:19:26;;;;;;;13.50;12.23;;;;;;;24.02;55.35;99018.22;6963441;28;20237;-79
2022/07/24 02:22:49;;;;;;;12.33;11.33;;;;;;;23.51;56.10;98967.34;6972251;28;20231;-81
2022/07/24 02:26:10;;;;;;;13.17;11.90;;;;;;;23.90;56.11;99034.28;6963735;28;20205;-79
2022/07/24 02:29:33;;;;;;;13.20;11.90;;;;;;;23.68;57.15;99049.56;6952242;28;20253;-80
2022/07/24 02:32:57;;;;;;;14.77;13.37;;;;;;;23.81;56.74;99041.50;6951623;28;20318;-80
2022/07/24 02:36:18;;;;;;;12.87;11.67;;;;;;;24.12;55.97;99039.41;6952449;28;20556;-80
2022/07/24 02:39:40;;;;;;;12.97;11.73;;;;;;;24.05;55.52;99014.91;6952307;28;20214;-80
2022/07/24 02:43:01;;;;;;;12.83;11.53;;;;;;;24.21;55.46;99032.16;6952350;28;20241;-80
2022/07/24 02:46:24;;;;;;;12.87;11.70;;;;;;;24.28;54.67;99025.22;6953075;28;20289;-80
2022/07/24 02:49:46;;;;;;;13.63;12.23;;;;;;;23.72;56.47;99032.19;6952932;28;20204;-80
2022/07/24 02:53:07;;;;;;;13.67;12.47;;;;;;;23.55;57.63;99030.91;6952994;28;20367;-81
2022/07/24 02:56:29;;;;;;;13.70;12.50;;;;;;;23.58;57.54;99038.59;6953207;28;20202;-80
2022/07/24 02:59:52;;;;;;;13.90;12.50;;;;;;;23.53;56.72;98995.41;6952659;28;20209;-80
2022/07/24 03:03:15;;;;;;;13.00;11.90;;;;;;;23.97;56.26;99040.34;6953072;28;20242;-80
2022/07/24 03:06:36;;;;;;;13.30;12.10;;;;;;;24.00;56.27;99041.66;6952734;28;20220;-80
2022/07/24 03:09:58;;;;;;;13.50;12.30;;;;;;;23.99;55.99;99045.53;6952652;28;20301;-80
2022/07/24 03:13:19;;;;;;;14.27;12.03;;;;;;;24.39;55.15;99039.72;6952214;28;20690;-81
2022/07/24 03:16:41;;;;;;;13.43;12.23;;;;;;;24.11;55.87;99049.59;6954761;28;20211;-80
2022/07/24 03:20:05;;;;;;;14.50;11.97;;;;;;;24.20;55.58;99023.06;6968056;28;20206;-80
2022/07/24 03:23:26;;;;;;;14.37;12.90;;;;;;;24.25;55.15;99036.00;6955123;28;20697;-80
2022/07/24 03:26:48;;;;;;;14.30;12.87;;;;;;;24.00;55.91;99037.00;6955129;28;20246;-80
2022/07/24 03:30:11;;;;;;;13.97;12.57;;;;;;;23.60;56.71;99044.66;6955386;28;20215;-80
2022/07/24 03:33:33;;;;;;;13.67;12.47;;;;;;;23.55;57.41;99042.72;6958652;28;20269;-80
2022/07/24 03:36:58;;;;;;;12.87;11.77;;;;;;;23.64;56.46;99032.78;6960165;28;20197;-80
2022/07/24 03:40:20;;;;;;;14.03;12.83;;;;;;;23.29;57.51;99021.94;6956803;28;20559;-79
2022/07/24 03:43:41;;;;;;;14.40;13.10;;;;;;;23.23;58.01;99047.00;6968367;28;20229;-80
2022/07/24 03:47:03;;;;;;;14.97;13.40;;;;;;;23.17;58.46;99048.94;6960697;28;20204;-81
2022/07/24 03:50:25;;;;;;;14.20;12.80;;;;;;;23.36;57.87;99046.41;6955510;28;20224;-80
2022/07/24 03:53:48;;;;;;;13.63;12.43;;;;;;;23.53;57.15;99058.72;6961560;28;20326;-81
2022/07/24 03:57:10;;;;;;;13.63;12.23;;;;;;;23.89;56.16;99062.94;6971176;28;20204;-81
2022/07/24 04:00:39;;;;;;;13.53;12.43;;;;;;;23.78;56.02;99055.00;6956445;28;20252;-81
2022/07/24 04:04:04;;;;;;;14.00;12.63;;;;;;;23.52;57.50;99054.31;6961411;28;20232;-80
2022/07/24 04:07:38;;;;;;;14.17;12.80;;;;;;;23.46;57.37;99054.59;6965585;28;20225;-81
2022/07/24 04:11:04;;;;;;;13.57;12.27;;;;;;;23.25;58.17;99050.31;6968431;28;20255;-80
2022/07/24 04:14:25;;;;;;;13.37;12.17;;;;;;;23.40;57.85;99059.31;6957098;28;20190;-80
2022/07/24 04:17:47;;;;;;;14.27;12.23;;;;;;;23.29;58.40;99068.72;6954989;28;20204;-80
2022/07/24 04:21:08;;;;;;;13.23;11.90;;;;;;;23.64;56.91;99065.81;6959692;28;20292;-80
2022/07/24 04:24:30;;;;;;;13.83;12.43;;;;;;;23.80;56.55;99075.66;6955151;28;20237;-80
2022/07/24 04:27:53;;;;;;;13.87;12.53;;;;;;;23.24;56.78;99029.41;6968286;28;20208;-81
2022/07/24 04:31:14;;;;;;;14.23;12.93;;;;;;;23.54;57.83;99073.31;6959470;28;20225;-80
2022/07/24 04:34:37;;;;;;;12.87;11.67;;;;;;;23.64;56.12;99059.47;6961589;28;20205;-81
2022/07/24 04:37:58;;;;;;;14.17;12.80;;;;;;;23.46;57.73;99068.38;6952189;28;20554;-81
2022/07/24 04:41:20;;;;;;;14.77;13.30;;;;;;;23.49;57.59;99081.59;6954101;28;20306;-80
2022/07/24 04:44:43;;;;;;;13.50;11.80;;;;;;;23.52;57.85;99075.50;6949549;28;20215;-80
2022/07/24 04:48:05;;;;;;;13.77;12.57;;;;;;;23.44;57.81;99085.19;6948825;28;20851;-80
2022/07/24 04:51:26;;;;;;;13.47;12.30;;;;;;;23.72;57.15;99072.66;6949801;28;20733;-81
2022/07/24 04:54:48;;;;;;;13.97;12.53;;;;;;;23.65;57.18;99081.22;6950642;28;20261;-80
2022/07/24 04:58:10;;;;;;;14.73;12.13;;;;;;;23.91;57.06;99088.31;6949724;28;20217;-80
2022/07/24 05:01:33;;;;;;;12.97;11.77;;;;;;;23.80;57.35;99097.69;6949689;28;20382;-80
2022/07/24 05:04:54;;;;;;;13.93;12.73;;;;;;;23.84;57.07;99084.97;6950513;28;20742;-80
2022/07/24 05:08:16;;;;;;;14.33;12.97;;;;;;;23.82;57.83;99084.44;6949535;28;20223;-80
2022/07/24 05:11:37;;;;;;;14.07;12.73;;;;;;;24.13;56.31;99069.41;6950483;28;20232;-81
2022/07/24 05:14:59;;;;;;;12.40;11.10;;;;;;;24.78;55.16;99099.22;6950104;28;20290;-80
2022/07/24 05:18:22;;;;;;;12.77;11.50;;;;;;;25.06;54.03;99089.31;6949328;28;20293;-81
2022/07/24 05:21:43;;;;;;;12.43;11.23;;;;;;;25.14;54.17;99106.03;6950393;28;20272;-80
2022/07/24 05:25:06;;;;;;;12.40;11.30;;;;;;;25.41;52.96;99098.06;6949840;28;20250;-81
2022/07/24 05:28:28;;;;;;;12.23;11.13;;;;;;;25.97;51.67;99096.28;6948533;28;20200;-81
2022/07/24 05:31:51;;;;;;;12.77;11.47;;;;;;;26.06;51.07;99088.13;6947984;28;20315;-80
2022/07/24 05:35:14;;;;;;;12.93;11.63;;;;;;;26.04;51.88;99101.41;6949656;28;20187;-80
2022/07/24 05:38:36;;;;;;;11.50;10.40;;;;;;;26.60;50.37;99097.53;6949017;28;20214;-80
2022/07/24 05:41:57;;;;;;;11.70;10.50;;;;;;;26.73;49.93;99084.88;6949941;28;20242;-80
2022/07/24 05:45:19;;;;;;;11.97;10.30;;;;;;;26.73;49.24;99032.31;6949914;28;20350;-80
2022/07/24 05:48:40;;;;;;;11.10;10.00;;;;;;;27.25;48.50;99068.69;6949561;28;20222;-81
2022/07/24 05:52:03;;;;;;;11.57;10.47;;;;;;;27.17;47.74;99022.34;6949179;28;20259;-81
2022/07/24 05:55:25;;;;;;;11.30;10.27;;;;;;;27.62;47.94;99068.50;6949958;28;20282;-80
2022/07/24 05:58:46;;;;;;;11.43;10.53;;;;;;;27.96;47.06;99090.25;6949756;28;20220;-80
2022/07/24 06:02:09;;;;;;;10.90;9.90;;;;;;;27.75;47.20;99077.94;6951681;28;20232;-80
2022/07/24 06:05:31;;;;;;;10.67;9.80;;;;;;;27.82;47.39;99081.13;6949899;28;20209;-80
2022/07/24 06:08:53;;;;;;;11.47;10.40;;;;;;;28.27;46.70;99083.72;6949323;28;20239;-80
2022/07/24 06:12:15;;;;;;;10.67;9.67;;;;;;;28.47;45.17;99077.69;6949197;28;20235;-80
2022/07/24 06:15:37;;;;;;;10.33;9.30;;;;;;;28.11;45.90;99074.09;6949569;28;20334;-80
2022/07/24 06:18:58;;;;;;;10.10;9.10;;;;;;;28.83;44.69;99077.63;6948541;28;20247;-80
2022/07/24 06:22:20;;;;;;;11.77;9.53;;;;;;;29.52;43.46;99074.06;6949472;28;20241;-80
2022/07/24 06:25:43;;;;;;;10.00;9.10;;;;;;;29.74;42.65;99079.56;6948372;28;20201;-80
2022/07/24 06:29:05;;;;;;;10.23;9.30;;;;;;;30.20;41.36;99083.44;6921180;28;20207;-80
2022/07/24 06:32:26;;;;;;;10.03;9.03;;;;;;;29.91;41.39;99058.19;6920201;28;20229;-80
2022/07/24 06:35:48;;;;;;;10.40;9.50;;;;;;;29.75;42.51;99084.81;6921903;28;20189;-79
2022/07/24 06:39:09;;;;;;;9.13;8.33;;;;;;;29.78;41.87;99091.69;6921139;28;20205;-80
2022/07/24 06:42:32;;;;;;;9.73;8.93;;;;;;;29.82;41.29;99084.31;6922005;28;20753;-80
2022/07/24 06:45:54;;;;;;;9.03;8.33;;;;;;;30.01;41.66;99068.19;6924123;28;20224;-80
2022/07/24 06:49:15;;;;;;;9.17;8.30;;;;;;;31.08;39.90;99090.28;6922815;28;20206;-80
2022/07/24 06:52:37;;;;;;;8.50;7.70;;;;;;;31.84;37.54;99081.66;6923845;28;20713;-80
2022/07/24 06:55:59;;;;;;;7.70;7.10;;;;;;;32.59;35.62;99081.47;6926866;28;20211;-80
2022/07/24 06:59:21;;;;;;;8.97;8.17;;;;;;;31.83;36.44;99077.22;6921928;28;20683;-80
2022/07/24 07:02:43;;;;;;;9.90;8.13;;;;;;;32.11;36.11;99058.84;6927202;28;20230;-80
2022/07/24 07:06:05;;;;;;;8.53;7.83;;;;;;;32.14;36.37;99035.81;6927111;28;20209;-80
2022/07/24 07:09:26;;;;;;;8.43;7.70;;;;;;;32.52;35.75;99072.00;6926406;28;20211;-80
2022/07/24 07:12:48;;;;;;;8.33;7.53;;;;;;;32.45;35.60;99066.97;6927605;28;20288;-80
2022/07/24 07:16:11;;;;;;;8.73;8.03;;;;;;;32.72;35.12;99071.16;6927030;28;20215;-80
2022/07/24 07:19:33;;;;;;;8.00;7.40;;;;;;;31.89;35.88;99036.84;6926413;28;20205;-80
2022/07/24 07:22:54;;;;;;;9.07;8.17;;;;;;;32.18;36.92;99063.88;6926974;28;20277;-80
2022/07/24 07:26:16;;;;;;;8.80;8.10;;;;;;;31.54;36.42;99049.31;6927229;28;20214;-80
2022/07/24 07:29:37;;;;;;;9.10;8.40;;;;;;;31.36;38.95;99074.84;6926241;28;20309;-80
2022/07/24 07:33:00;;;;;;;8.30;7.60;;;;;;;30.96;38.32;99051.97;6926039;28;20282;-80
2022/07/24 07:36:22;;;;;;;9.90;8.90;;;;;;;30.98;38.78;99051.66;6927363;28;20243;-80
2022/07/24 07:39:43;;;;;;;8.97;8.17;;;;;;;32.59;36.60;99063.88;6926487;28;20296;-80
2022/07/24 07:43:05;;;;;;;9.03;8.23;;;;;;;31.14;38.51;99061.91;6926371;28;20309;-80
2022/07/24 07:46:26;;;;;;;8.90;8.20;;;;;;;30.15;41.20;99080.84;6927090;28;20219;-80
2022/07/24 07:49:49;;;;;;;9.70;8.70;;;;;;;30.35;40.65;99066.28;6926005;28;20246;-80
2022/07/24 07:53:11;;;;;;;9.13;8.33;;;;;;;30.46;40.55;99078.72;6926481;28;20240;-80
2022/07/24 07:56:32;;;;;;;9.43;8.53;;;;;;;30.87;40.07;99079.03;6927043;28;20216;-80
2022/07/24 07:59:54;;;;;;;9.83;8.90;;;;;;;31.03;39.59;99068.19;6925681;28;20239;-80
2022/07/24 08:03:16;;;;;;;9.50;8.60;;;;;;;31.18;39.01;99078.78;6926090;28;20254;-80
2022/07/24 08:06:39;;;;;;;8.90;8.20;;;;;;;31.30;38.21;99087.31;6926854;28;20210;-80
2022/07/24 08:10:01;;;;;;;9.20;8.40;;;;;;;31.24;38.92;99091.44;6926673;28;20211;-80
2022/07/24 08:13:22;;;;;;;9.27;8.47;;;;;;;31.83;36.91;99004.72;6926349;28;20231;-80
2022/07/24 08:16:44;;;;;;;8.80;8.00;;;;;;;31.80;36.37;99063.16;6926654;28;20769;-80
2022/07/24 08:20:06;;;;;;;8.87;8.07;;;;;;;32.92;35.70;99070.31;6925336;28;20296;-75
2022/07/24 08:23:29;;;;;;;9.10;8.17;;;;;;;32.55;34.80;99079.69;6926625;28;20232;-80
2022/07/24 08:26:51;;;;;;;8.37;7.67;;;;;;;31.67;36.84;99067.78;6928457;28;20203;-80
2022/07/24 08:30:13;;;;;;;8.00;7.33;;;;;;;31.91;36.54;99061.59;6927555;28;20203;-80
2022/07/24 08:33:35;;;;;;;8.30;7.50;;;;;;;32.21;35.45;99066.81;6924659;28;20317;-80
2022/07/24 08:36:56;;;;;;;7.70;7.00;;;;;;;32.69;34.61;99066.25;6925828;28;20281;-80
2022/07/24 08:40:19;;;;;;;7.87;7.07;;;;;;;33.72;33.55;99055.56;6924275;28;20215;-80
2022/07/24 08:43:41;;;;;;;7.73;7.03;;;;;;;34.41;31.69;99054.22;6925542;28;20262;-81
2022/07/24 08:47:03;;;;;;;7.47;6.87;;;;;;;34.70;31.35;99045.47;6925568;28;20204;-81
2022/07/24 08:50:24;;;;;;;8.10;7.40;;;;;;;32.58;32.84;99049.13;6925265;28;20219;-80
2022/07/24 08:53:49;;;;;;;8.17;7.07;;;;;;;34.40;30.79;99024.56;6925978;28;20204;-80
2022/07/24 08:57:12;;;;;;;7.80;7.10;;;;;;;34.34;30.40;99044.78;6926629;28;20340;-81
2022/07/24 09:00:33;;;;;;;6.93;6.30;;;;;;;34.71;29.64;99037.84;6925840;28;20249;-80
2022/07/24 09:03:55;;;;;;;6.93;6.33;;;;;;;34.91;29.42;99045.28;6927016;28;20238;-80
2022/07/24 09:07:19;;;;;;;7.07;6.47;;;;;;;35.67;28.14;99032.47;6926983;28;20239;-80
2022/07/24 09:10:40;;;;;;;6.60;6.00;;;;;;;36.38;26.47;99037.78;6926485;28;20231;-81
2022/07/24 09:17:51;;;;;;;6.53;5.93;;;;;;;37.02;26.62;99044.34;6926328;28;20233;-81
2022/07/24 09:21:14;;;;;;;6.37;5.77;;;;;;;35.45;27.44;99021.91;6927115;28;20232;-80
2022/07/24 09:24:36;;;;;;;8.67;6.70;;;;;;;35.16;27.94;99030.75;6926759;28;20592;-81
2022/07/24 09:27:59;;;;;;;6.47;5.87;;;;;;;36.02;27.87;99030.53;6926768;28;20204;-81
2022/07/24 09:31:23;;;;;;;6.33;5.73;;;;;;;36.96;26.42;99023.31;6926205;28;20220;-81
2022/07/24 09:34:45;;;;;;;6.73;6.03;;;;;;;36.99;26.12;99021.78;6927763;28;20215;-80
2022/07/24 09:38:08;;;;;;;6.97;6.47;;;;;;;36.32;26.87;99000.72;6927274;28;20200;-81
2022/07/24 09:41:30;;;;;;;6.70;6.10;;;;;;;35.91;26.85;99029.47;6927845;28;20274;-80
2022/07/24 09:44:57;;;;;;;6.67;6.07;;;;;;;35.39;28.02;99040.19;6927876;28;20224;-80
2022/07/24 09:48:23;;;;;;;6.50;5.90;;;;;;;35.04;28.29;99036.44;6927667;28;20334;-81
2022/07/24 09:51:45;;;;;;;7.23;6.10;;;;;;;35.58;27.57;99023.44;6927669;28;20266;-80
2022/07/24 09:55:20;;;;;;;6.53;6.00;;;;;;;34.26;29.00;99028.94;6927805;28;20240;-80
2022/07/24 09:58:48;;;;;;;8.30;7.60;;;;;;;34.83;29.26;99029.44;6927861;28;20207;-81
2022/07/24 10:02:13;;;;;;;6.30;5.80;;;;;;;35.13;27.75;99030.66;6939985;28;20207;-80
2022/07/24 10:05:37;;;;;;;6.40;5.80;;;;;;;35.33;27.49;99013.59;6926964;28;20239;-80
2022/07/24 10:09:01;;;;;;;6.43;5.93;;;;;;;34.93;27.47;99007.31;6922157;28;20617;-80
2022/07/24 10:12:24;;;;;;;6.60;6.10;;;;;;;34.66;28.61;99015.72;6923598;28;20232;-80
2022/07/24 10:15:53;;;;;;;6.47;5.93;;;;;;;34.46;28.81;99019.53;6924321;28;20291;-81
2022/07/24 10:19:16;;;;;;;7.53;6.40;;;;;;;35.26;27.79;99012.59;6923926;28;20264;-81
2022/07/24 10:22:53;;;;;;;6.63;6.03;;;;;;;35.15;28.12;99012.31;6923655;28;20224;-81
2022/07/24 10:26:21;;;;;;;6.97;6.27;;;;;;;34.28;27.59;98981.78;6922912;28;20290;-81
2022/07/24 10:29:43;;;;;;;6.27;5.77;;;;;;;34.60;28.09;98989.94;6939658;28;20663;-81
2022/07/24 10:33:05;;;;;;;6.20;5.70;;;;;;;34.66;27.93;98999.72;6948677;28;20258;-81
2022/07/24 10:36:30;;;;;;;6.53;5.97;;;;;;;35.50;26.46;98984.34;6954893;28;20194;-80
2022/07/24 10:40:03;;;;;;;6.93;5.90;;;;;;;35.65;26.59;98989.09;6955086;28;20293;-81
2022/07/24 10:43:24;;;;;;;6.50;6.00;;;;;;;36.02;25.56;98984.81;6956063;28;20262;-81
2022/07/24 10:47:04;;;;;;;6.80;5.90;;;;;;;33.22;28.76;98985.97;6954234;28;20289;-81
2022/07/24 10:51:00;;;;;;;6.40;5.80;;;;;;;33.98;28.13;98983.28;6973064;28;20272;-81
2022/07/24 10:54:21;;;;;;;7.27;6.47;;;;;;;33.92;27.70;98979.09;6960067;28;20202;-82
2022/07/24 10:57:49;;;;;;;6.10;5.50;;;;;;;34.60;27.27;98992.72;6955229;28;20230;-82
2022/07/24 11:01:28;;;;;;;6.50;5.70;;;;;;;35.94;25.51;98978.22;6954775;28;20233;-82
2022/07/24 11:05:26;;;;;;;6.33;5.70;;;;;;;37.17;23.94;98972.31;6957374;28;20247;-81
2022/07/24 11:08:49;;;;;;;6.63;6.00;;;;;;;37.43;23.33;98970.34;6962471;28;20244;-81
2022/07/24 11:12:11;;;;;;;5.70;5.20;;;;;;;37.07;23.39;98953.25;6958442;28;20258;-81
2022/07/24 11:16:12;;;;;;;6.33;5.73;;;;;;;37.41;23.28;98958.66;6957276;28;20209;-81
2022/07/24 11:19:34;;;;;;;6.10;5.63;;;;;;;36.80;24.01;98957.16;6957236;28;20633;-80
2022/07/24 11:22:57;;;;;;;6.20;5.70;;;;;;;37.04;23.31;98952.00;6957683;28;20230;-81
2022/07/24 11:26:40;;;;;;;6.57;5.93;;;;;;;35.91;25.00;98942.44;6956616;28;20210;-81
2022/07/24 11:30:02;;;;;;;6.53;5.90;;;;;;;35.81;25.06;98942.22;6954668;28;20203;-82
2022/07/24 11:33:25;;;;;;;9.77;5.47;;;;;;;37.01;24.07;98940.69;6956298;28;20227;-81
2022/07/24 11:36:48;;;;;;;5.83;5.23;;;;;;;36.85;24.25;98940.78;6968478;28;20211;-82
2022/07/24 11:40:15;;;;;;;5.87;5.37;;;;;;;37.05;23.94;98933.94;6962087;28;20290;-81
2022/07/24 11:43:50;;;;;;;6.77;6.03;;;;;;;37.29;23.90;98927.94;6960976;28;20223;-81
2022/07/24 11:47:14;;;;;;;6.07;5.47;;;;;;;37.59;22.95;98928.81;6961144;28;20205;-81
2022/07/24 11:50:36;;;;;;;6.03;5.60;;;;;;;38.03;22.60;98929.06;6957658;28;20211;-81
2022/07/24 11:53:58;;;;;;;6.77;5.40;;;;;;;38.86;21.63;98915.19;6956244;28;20210;-82
2022/07/24 11:57:22;;;;;;;6.22;5.60;;;;;;;39.14;21.10;98914.63;6955841;28;20211;-82
2022/07/24 12:00:43;;;;;;;6.13;5.23;;;;;;;38.40;21.95;98908.19;6954951;28;20314;-81
2022/07/24 12:04:05;;;;;;;5.10;4.70;;;;;;;38.35;22.00;98904.91;6954550;28;20316;-81
2022/07/24 12:07:29;;;;;;;5.90;5.40;;;;;;;36.76;23.27;98902.88;6955123;28;20710;-81
2022/07/24 12:10:55;;;;;;;7.30;5.83;;;;;;;36.60;23.52;98890.94;6954230;28;20245;-81
2022/07/24 12:14:20;;;;;;;6.37;5.77;;;;;;;35.86;24.30;98891.41;6953248;28;20348;-81
2022/07/24 12:17:55;;;;;;;6.37;5.73;;;;;;;34.95;25.74;98892.03;6953807;28;20238;-81
2022/07/24 12:21:18;;;;;;;6.00;5.50;;;;;;;34.99;25.68;98887.31;6952792;28;20227;-81
2022/07/24 12:24:40;;;;;;;6.23;5.63;;;;;;;35.52;24.89;98886.59;6953414;28;20235;-81
2022/07/24 12:28:05;;;;;;;6.57;5.97;;;;;;;36.61;23.46;98893.34;6952877;28;20199;-81
2022/07/24 12:31:27;;;;;;;6.07;5.53;;;;;;;37.24;22.69;98843.84;6953040;28;20302;-81
2022/07/24 12:34:49;;;;;;;5.73;5.20;;;;;;;38.20;22.01;98875.75;6958804;28;20218;-81
2022/07/24 12:38:10;;;;;;;5.87;5.37;;;;;;;38.02;22.37;98877.56;6965490;28;20207;-82
2022/07/24 12:41:42;;;;;;;5.73;5.30;;;;;;;37.20;22.86;98851.41;6965736;28;20228;-81
2022/07/24 12:45:09;;;;;;;5.60;5.10;;;;;;;37.62;22.37;98873.78;6954740;28;20286;-81
2022/07/24 12:48:30;;;;;;;5.90;5.40;;;;;;;38.15;22.28;98870.50;6952309;28;20207;-81
2022/07/24 12:51:53;;;;;;;5.93;5.43;;;;;;;37.94;21.98;98863.72;6952211;28;20296;-81
2022/07/24 12:55:21;;;;;;;6.40;5.80;;;;;;;38.63;21.27;98858.16;6964583;28;20209;-82
2022/07/24 12:58:53;;;;;;;5.63;5.23;;;;;;;37.28;22.13;98852.34;6962810;28;20199;-81
2022/07/24 13:02:17;;;;;;;5.73;5.33;;;;;;;37.42;22.86;98850.56;6951483;28;20286;-81
2022/07/24 13:05:40;;;;;;;6.17;5.57;;;;;;;37.17;22.63;98831.69;6950856;28;20231;-82
2022/07/24 13:09:02;;;;;;;5.83;5.13;;;;;;;37.81;22.12;98826.59;6950891;28;20218;-81
2022/07/24 13:12:23;;;;;;;5.80;5.30;;;;;;;37.52;21.50;98830.19;6950871;28;20231;-82
2022/07/24 13:15:46;;;;;;;7.20;6.50;;;;;;;38.02;21.92;98834.50;6954715;28;20195;-81
2022/07/24 13:19:11;;;;;;;6.07;5.57;;;;;;;38.44;20.90;98826.53;6964964;28;20213;-82
2022/07/24 13:22:33;;;;;;;6.57;6.03;;;;;;;37.64;21.10;98827.19;6952014;28;20220;-81
2022/07/24 13:25:54;;;;;;;7.00;5.33;;;;;;;36.96;22.55;98801.22;6944702;28;20273;-81
2022/07/24 13:29:16;;;;;;;6.50;6.00;;;;;;;37.15;22.38;98817.19;6941650;28;20660;-81
2022/07/24 13:32:39;;;;;;;6.27;5.63;;;;;;;38.04;22.10;98818.03;6932089;28;20254;-81
2022/07/24 13:36:01;;;;;;;6.27;5.27;;;;;;;38.28;21.16;98804.22;6936394;28;20195;-81
2022/07/24 13:39:23;;;;;;;6.17;5.63;;;;;;;37.57;21.60;98745.47;6937110;28;20212;-82
2022/07/24 13:42:46;;;;;;;5.60;5.20;;;;;;;39.14;20.39;98802.56;6941900;28;20238;-81
2022/07/24 13:46:09;;;;;;;6.10;5.60;;;;;;;38.39;21.36;98805.13;6944680;28;20238;-81
2022/07/24 13:49:37;;;;;;;6.17;5.67;;;;;;;38.42;21.67;98800.78;6944613;28;20271;-81
2022/07/24 13:53:01;;;;;;;5.80;5.40;;;;;;;37.73;21.62;98796.72;6946438;28;20270;-81
2022/07/24 13:56:23;;;;;;;5.93;5.40;;;;;;;36.76;23.12;98774.41;6930660;28;20282;-80
2022/07/24 13:59:45;;;;;;;5.57;5.17;;;;;;;37.62;21.82;98778.09;6929366;28;20208;-81
2022/07/24 14:03:07;;;;;;;5.97;5.40;;;;;;;38.28;21.86;98756.31;6926940;28;20773;-81
2022/07/24 14:06:30;;;;;;;5.93;5.33;;;;;;;37.82;22.04;98766.28;6928191;28;20598;-82
2022/07/24 14:09:51;;;;;;;6.20;5.57;;;;;;;37.47;22.84;98771.44;6926435;28;20214;-82
2022/07/24 14:13:13;;;;;;;6.00;5.40;;;;;;;38.09;21.97;98750.09;6928042;28;20219;-82
2022/07/24 14:16:36;;;;;;;6.27;5.73;;;;;;;37.81;21.28;98728.06;6926052;28;20263;-82
2022/07/24 14:19:58;;;;;;;6.35;5.63;;;;;;;38.36;21.50;98755.19;6926768;28;20586;-82
2022/07/24 14:23:21;;;;;;;5.60;5.10;;;;;;;38.17;21.15;98754.59;6928801;28;20228;-82
2022/07/24 14:26:43;;;;;;;5.77;5.17;;;;;;;37.87;21.23;98753.84;6929016;28;20851;-82
2022/07/24 14:30:06;;;;;;;5.60;5.10;;;;;;;38.64;20.86;98755.47;6929004;28;20215;-82
2022/07/24 14:33:27;;;;;;;6.23;5.63;;;;;;;38.22;21.08;98745.78;6927277;28;20219;-81
2022/07/24 14:36:49;;;;;;;6.60;5.97;;;;;;;38.16;21.26;98741.72;6927863;28;20225;-82
2022/07/24 14:40:12;;;;;;;6.03;5.60;;;;;;;36.95;21.89;98746.19;6928784;28;20200;-82
2022/07/24 14:43:34;;;;;;;6.07;5.47;;;;;;;36.89;22.92;98727.22;6927546;28;20240;-82
2022/07/24 14:46:56;;;;;;;6.10;5.60;;;;;;;37.46;22.32;98730.44;6926843;28;20716;-82
2022/07/24 14:50:18;;;;;;;6.77;6.07;;;;;;;37.32;21.64;98730.22;6928604;28;20204;-82
2022/07/24 14:53:39;;;;;;;6.40;5.90;;;;;;;36.81;22.90;98731.94;6931168;28;20215;-82
2022/07/24 14:57:03;;;;;;;5.67;5.27;;;;;;;37.26;21.89;98708.47;6927036;28;20212;-81
2022/07/24 15:00:25;;;;;;;6.53;5.93;;;;;;;38.00;21.56;98719.44;6943557;28;20195;-81
2022/07/24 15:03:46;;;;;;;6.43;5.83;;;;;;;37.53;22.44;98710.84;6932227;28;20366;-81
2022/07/24 15:07:08;;;;;;;6.17;5.67;;;;;;;37.71;22.17;98706.22;6931877;28;20211;-82
2022/07/24 15:10:30;;;;;;;6.80;5.93;;;;;;;37.48;22.10;98691.47;6924261;28;20211;-81
2022/07/24 15:13:53;;;;;;;6.10;5.50;;;;;;;37.96;22.01;98695.22;6937719;28;20199;-81
2022/07/24 15:17:16;;;;;;;6.73;5.70;;;;;;;38.18;21.46;98697.88;6942626;28;20204;-81
2022/07/24 15:20:42;;;;;;;6.27;5.67;;;;;;;38.18;21.73;98694.22;6945129;28;20239;-81
2022/07/24 15:24:05;;;;;;;6.97;5.53;;;;;;;38.28;21.42;98690.72;6943944;28;20625;-82
2022/07/24 15:27:27;;;;;;;6.50;5.90;;;;;;;38.18;21.49;98678.16;6931092;28;20200;-82
2022/07/24 15:30:49;;;;;;;6.63;6.03;;;;;;;37.57;22.48;98677.94;6930400;28;20248;-82
2022/07/24 15:34:15;;;;;;;6.40;5.83;;;;;;;37.90;22.08;98680.69;6942167;28;20208;-81
2022/07/24 15:37:37;;;;;;;6.37;5.87;;;;;;;38.02;21.45;98671.19;6938066;28;20208;-82
2022/07/24 15:40:59;;;;;;;7.27;5.73;;;;;;;37.59;22.20;98666.28;6932520;28;20227;-81
2022/07/24 15:44:21;;;;;;;6.50;6.00;;;;;;;38.33;22.04;98665.00;6937089;28;20250;-82
2022/07/24 15:47:44;;;;;;;6.23;5.70;;;;;;;37.78;22.37;98657.66;6943345;28;20216;-81
2022/07/24 15:51:06;;;;;;;5.80;5.30;;;;;;;37.12;22.54;98630.34;6933856;28;20600;-81